createdAt,value
2019-04-04T00:02:17.091Z,10.60
2019-04-04T00:04:47.129Z,10.17
2019-04-04T00:07:17.302Z,11.60
2019-04-04T00:09:48.130Z,13.17
2019-04-04T00:12:18.232Z,12.20
2019-04-04T00:14:48.231Z,14.50
2019-04-04T00:17:18.503Z,15.03
2019-04-04T00:19:49.765Z,14.73
2019-04-04T00:22:19.713Z,14.40
2019-04-04T00:24:49.598Z,14.07
2019-04-04T00:27:19.771Z,14.60
2019-04-04T00:29:50.481Z,13.17
2019-04-04T00:32:20.965Z,16.00
2019-04-04T00:34:51.632Z,14.80
2019-04-04T00:37:21.938Z,14.83
2019-04-04T00:39:52.240Z,16.73
2019-04-04T00:42:22.660Z,17.27
2019-04-04T00:44:53.876Z,16.93
2019-04-04T00:47:24.816Z,18.27
2019-04-04T00:49:54.915Z,17.57
2019-04-04T00:52:28.235Z,17.50
2019-04-04T00:54:58.321Z,18.50
2019-04-04T00:57:28.595Z,17.60
2019-04-04T00:59:58.577Z,17.83
2019-04-04T01:02:28.545Z,17.43
2019-04-04T01:05:01.314Z,18.13
2019-04-04T01:07:30.593Z,18.30
2019-04-04T01:10:20.106Z,19.03
2019-04-04T01:12:51.999Z,17.40
2019-04-04T01:15:21.921Z,18.30
2019-04-04T01:17:52.256Z,19.27
2019-04-04T01:20:22.632Z,19.37
2019-04-04T01:22:54.035Z,18.70
2019-04-04T01:25:26.869Z,20.73
2019-04-04T01:27:56.836Z,24.20
2019-04-04T01:30:27.563Z,23.47
2019-04-04T01:32:57.685Z,25.37
2019-04-04T01:35:27.710Z,22.87
2019-04-04T01:37:58.233Z,23.10
2019-04-04T01:40:32.870Z,24.70
2019-04-04T01:43:01.332Z,26.47
2019-04-04T01:45:31.379Z,22.90
2019-04-04T01:48:01.911Z,24.67
2019-04-04T01:50:32.780Z,26.43
2019-04-04T01:53:03.185Z,29.63
2019-04-04T01:55:35.036Z,29.37
2019-04-04T01:58:05.468Z,30.17
2019-04-04T02:00:35.653Z,31.70
2019-04-04T02:03:05.758Z,30.43
2019-04-04T02:05:35.993Z,28.80
2019-04-04T02:08:06.178Z,29.60
2019-04-04T02:10:36.234Z,31.40
2019-04-04T02:13:09.549Z,31.70
2019-04-04T02:15:38.182Z,31.93
2019-04-04T02:18:08.451Z,31.83
2019-04-04T02:20:38.421Z,31.00
2019-04-04T02:23:08.511Z,30.90
2019-04-04T02:25:38.475Z,31.07
2019-04-04T02:28:08.954Z,29.00
2019-04-04T02:30:40.150Z,28.30
2019-04-04T02:33:10.291Z,32.00
2019-04-04T02:35:42.762Z,31.40
2019-04-04T02:38:11.987Z,29.83
2019-04-04T02:40:42.341Z,24.53
2019-04-04T02:43:12.753Z,22.60
2019-04-04T02:45:42.813Z,20.37
2019-04-04T02:48:12.846Z,25.70
2019-04-04T02:50:43.102Z,26.03
2019-04-04T02:53:13.639Z,26.20
2019-04-04T02:55:44.129Z,29.03
2019-04-04T02:58:15.247Z,29.10
2019-04-04T03:00:45.441Z,27.17
2019-04-04T03:03:16.097Z,26.40
2019-04-04T03:05:50.785Z,25.33
2019-04-04T03:08:18.481Z,23.27
2019-04-04T03:10:49.478Z,31.07
2019-04-04T03:13:19.679Z,32.00
2019-04-04T03:15:49.776Z,31.20
2019-04-04T03:18:20.094Z,30.83
2019-04-04T03:20:50.724Z,32.43
2019-04-04T03:23:21.466Z,30.90
2019-04-04T03:25:51.667Z,30.10
2019-04-04T03:28:21.652Z,30.13
2019-04-04T03:31:01.890Z,31.47
2019-04-04T03:33:31.279Z,28.97
2019-04-04T03:36:00.988Z,27.23
2019-04-04T03:38:30.328Z,28.20
2019-04-04T03:41:00.578Z,29.17
2019-04-04T03:43:30.806Z,29.53
2019-04-04T03:46:01.733Z,29.27
2019-04-04T03:48:31.960Z,31.23
2019-04-04T03:51:04.720Z,31.10
2019-04-04T03:53:34.155Z,31.43
2019-04-04T03:56:04.480Z,31.60
2019-04-04T03:58:34.465Z,32.47
2019-04-04T04:01:05.125Z,33.60
2019-04-04T04:03:35.204Z,31.63
2019-04-04T04:06:08.415Z,32.03
2019-04-04T04:08:36.940Z,33.20
2019-04-04T04:11:08.508Z,33.27
2019-04-04T04:13:38.818Z,32.23
2019-04-04T04:16:10.457Z,30.67
2019-04-04T04:18:41.000Z,31.53
2019-04-04T04:21:11.434Z,31.10
2019-04-04T04:23:41.596Z,31.33
2019-04-04T04:26:12.306Z,29.37
2019-04-04T04:28:43.308Z,31.07
2019-04-04T04:31:15.342Z,29.20
2019-04-04T04:33:45.612Z,31.00
2019-04-04T04:36:16.422Z,29.37
2019-04-04T04:38:47.460Z,30.90
2019-04-04T04:41:20.462Z,30.73
2019-04-04T04:43:49.663Z,30.57
2019-04-04T04:46:19.732Z,28.97
2019-04-04T04:48:49.678Z,29.20
2019-04-04T04:51:19.973Z,28.60
2019-04-04T04:53:50.654Z,31.30
2019-04-04T04:56:21.285Z,29.47
2019-04-04T04:58:51.206Z,29.70
2019-04-04T05:01:21.248Z,27.80
2019-04-04T05:03:51.150Z,27.83
2019-04-04T05:06:21.565Z,26.83
2019-04-04T05:08:51.850Z,27.77
2019-04-04T05:11:22.211Z,27.03
2019-04-04T05:13:52.966Z,26.93
2019-04-04T05:16:22.946Z,26.97
2019-04-04T05:18:53.389Z,28.20
2019-04-04T05:21:25.647Z,28.17
2019-04-04T05:23:55.524Z,28.97
2019-04-04T05:26:25.826Z,26.53
2019-04-04T05:28:57.185Z,28.27
2019-04-04T05:31:27.758Z,26.70
2019-04-04T05:33:59.056Z,27.30
2019-04-04T05:36:30.120Z,26.70
2019-04-04T05:39:00.202Z,30.47
2019-04-04T05:41:30.488Z,28.17
2019-04-04T05:44:00.801Z,26.60
2019-04-04T05:46:30.900Z,24.93
2019-04-04T05:49:07.549Z,24.57
2019-04-04T05:51:36.045Z,22.53
2019-04-04T05:54:09.404Z,23.17
2019-04-04T05:56:39.716Z,23.33
2019-04-04T05:59:10.063Z,21.70
2019-04-04T06:01:40.345Z,19.07
2019-04-04T06:04:11.901Z,20.37
2019-04-04T06:06:42.318Z,20.20
2019-04-04T06:09:14.700Z,20.33
2019-04-04T06:11:48.515Z,21.77
2019-04-04T06:14:20.491Z,24.13
2019-04-04T06:16:49.712Z,23.83
2019-04-04T06:19:19.806Z,20.63
2019-04-04T06:21:50.559Z,21.47
2019-04-04T06:24:20.481Z,23.80
2019-04-04T06:26:51.436Z,24.23
2019-04-04T06:29:21.530Z,23.17
2019-04-04T06:31:51.419Z,18.87
2019-04-04T06:34:23.956Z,17.90
2019-04-04T06:36:53.049Z,17.53
2019-04-04T06:39:25.119Z,16.67
2019-04-04T06:41:54.961Z,15.57
2019-04-04T06:44:25.098Z,16.77
2019-04-04T06:46:55.608Z,19.00
2019-04-04T06:49:28.650Z,17.37
2019-04-04T06:51:57.547Z,15.53
2019-04-04T06:54:28.129Z,13.60
2019-04-04T06:56:59.239Z,13.53
2019-04-04T06:59:30.325Z,13.40
2019-04-04T07:02:00.794Z,13.30
2019-04-04T07:04:35.784Z,12.13
2019-04-04T07:07:04.294Z,12.57
2019-04-04T07:09:37.158Z,12.47
2019-04-04T07:12:07.094Z,11.53
2019-04-04T07:14:45.510Z,11.67
2019-04-04T07:17:09.561Z,12.80
2019-04-04T07:19:39.526Z,11.23
2019-04-04T07:22:09.411Z,11.77
2019-04-04T07:24:39.486Z,10.97
2019-04-04T07:27:09.704Z,10.60
2019-04-04T07:29:39.725Z,11.10
2019-04-04T07:32:10.214Z,11.23
2019-04-04T07:34:40.293Z,10.80
2019-04-04T07:37:10.685Z,11.23
2019-04-04T07:39:40.643Z,10.80
2019-04-04T07:42:15.476Z,10.53
2019-04-04T07:44:44.682Z,11.00
2019-04-04T07:47:16.153Z,10.03
2019-04-04T07:49:46.636Z,10.30
2019-04-04T07:52:17.349Z,11.00
2019-04-04T07:54:48.194Z,11.13
2019-04-04T07:57:19.745Z,10.30
2019-04-04T07:59:50.483Z,10.40
2019-04-04T08:02:20.551Z,10.33
2019-04-04T08:04:51.171Z,12.13
2019-04-04T08:07:21.091Z,10.57
2019-04-04T08:09:51.193Z,10.43
2019-04-04T08:12:21.276Z,9.67
2019-04-04T08:14:51.343Z,9.07
2019-04-04T08:17:21.646Z,10.30
2019-04-04T08:19:59.630Z,9.60
2019-04-04T08:22:23.355Z,8.80
2019-04-04T08:24:53.468Z,7.63
2019-04-04T08:27:23.879Z,7.63
2019-04-04T08:29:53.981Z,8.33
2019-04-04T08:32:24.260Z,9.27
2019-04-04T08:34:54.258Z,8.33
2019-04-04T08:37:24.721Z,8.47
2019-04-04T08:39:55.400Z,8.40
2019-04-04T08:42:25.312Z,8.13
2019-04-04T08:44:55.585Z,7.77
2019-04-04T08:47:25.900Z,8.20
2019-04-04T08:49:56.140Z,7.90
2019-04-04T08:52:26.100Z,8.53
2019-04-04T08:54:56.465Z,8.47
2019-04-04T08:57:26.811Z,10.53
2019-04-04T08:59:57.379Z,9.80
2019-04-04T09:02:27.360Z,8.80
2019-04-04T09:04:57.283Z,9.80
2019-04-04T09:07:27.188Z,8.60
2019-04-04T09:09:57.152Z,10.40
2019-04-04T09:12:27.673Z,9.17
2019-04-04T09:14:57.686Z,8.83
2019-04-04T09:17:27.673Z,8.93
2019-04-04T09:19:58.047Z,8.53
2019-04-04T09:22:29.770Z,9.10
2019-04-04T09:25:01.361Z,8.57
2019-04-04T09:27:31.909Z,9.33
2019-04-04T09:30:01.959Z,7.60
2019-04-04T09:32:32.221Z,9.60
2019-04-04T09:35:02.224Z,8.30
2019-04-04T09:37:32.212Z,8.10
2019-04-04T09:40:02.340Z,8.40
2019-04-04T09:42:32.343Z,8.73
2019-04-04T09:45:02.269Z,8.40
2019-04-04T09:47:32.308Z,8.57
2019-04-04T09:50:02.412Z,7.97
2019-04-04T09:52:32.575Z,8.43
2019-04-04T09:55:02.866Z,8.10
2019-04-04T09:57:33.059Z,8.27
2019-04-04T10:00:03.525Z,9.20
2019-04-04T10:02:33.708Z,8.20
2019-04-04T10:05:06.036Z,8.23
2019-04-04T10:07:35.814Z,10.07
2019-04-04T10:10:09.248Z,8.50
2019-04-04T10:12:39.236Z,8.70
2019-04-04T10:15:09.815Z,9.53
2019-04-04T10:17:39.799Z,9.07
2019-04-04T10:20:11.016Z,9.27
2019-04-04T10:22:41.453Z,9.23
2019-04-04T10:25:11.557Z,9.63
2019-04-04T10:27:41.968Z,10.23
2019-04-04T10:30:13.151Z,9.40
2019-04-04T10:32:43.105Z,9.20
2019-04-04T10:35:13.315Z,8.60
2019-04-04T10:37:43.238Z,9.07
2019-04-04T10:40:13.835Z,8.57
2019-04-04T10:42:43.799Z,8.57
2019-04-04T10:45:14.364Z,8.23
2019-04-04T10:47:44.245Z,8.90
2019-04-04T10:50:15.182Z,7.53
2019-04-04T10:52:45.704Z,9.63
2019-04-04T10:55:16.077Z,8.97
2019-04-04T10:57:46.313Z,8.23
2019-04-04T11:00:16.720Z,8.07
2019-04-04T11:02:46.682Z,7.67
2019-04-04T11:05:17.272Z,7.90
2019-04-04T11:07:47.179Z,8.20
2019-04-04T11:10:17.725Z,8.03
2019-04-04T11:12:49.561Z,7.93
2019-04-04T11:15:19.882Z,7.57
2019-04-04T11:17:50.218Z,7.27
2019-04-04T11:20:20.590Z,8.27
2019-04-04T11:22:51.072Z,8.27
2019-04-04T11:25:21.402Z,8.33
2019-04-04T11:27:51.573Z,8.00
2019-04-04T11:30:26.190Z,8.53
2019-04-04T11:32:56.995Z,8.13
2019-04-04T11:35:28.312Z,8.67
2019-04-04T11:37:58.509Z,8.50
2019-04-04T11:40:29.163Z,8.60
2019-04-04T11:42:59.170Z,7.60
2019-04-04T11:45:29.154Z,9.17
2019-04-04T11:47:59.237Z,8.50
2019-04-04T11:50:29.312Z,9.03
2019-04-04T11:53:00.995Z,9.00
2019-04-04T11:55:31.491Z,9.27
2019-04-04T11:58:01.486Z,9.07
2019-04-04T12:00:34.284Z,10.60
2019-04-04T12:03:04.443Z,9.97
2019-04-04T12:05:34.628Z,10.70
2019-04-04T12:08:04.862Z,9.27
2019-04-04T12:10:35.323Z,9.90
2019-04-04T12:13:05.447Z,10.37
2019-04-04T12:15:35.542Z,10.53
2019-04-04T12:18:05.586Z,10.80
2019-04-04T12:20:36.014Z,11.20
2019-04-04T12:23:06.039Z,9.97
2019-04-04T12:25:36.822Z,11.60
2019-04-04T12:28:06.944Z,11.90
2019-04-04T12:30:37.107Z,10.87
2019-04-04T12:33:07.426Z,11.57
2019-04-04T12:35:37.565Z,13.47
2019-04-04T12:38:07.706Z,14.20
2019-04-04T12:40:37.917Z,15.73
2019-04-04T12:43:07.927Z,13.50
2019-04-04T12:45:37.955Z,13.30
2019-04-04T12:48:09.250Z,13.33
2019-04-04T12:50:39.441Z,16.17
2019-04-04T12:53:10.106Z,13.60
2019-04-04T12:55:40.474Z,12.60
2019-04-04T12:58:12.295Z,13.00
2019-04-04T13:00:42.400Z,12.20
2019-04-04T13:03:12.686Z,14.23
2019-04-04T13:05:42.807Z,12.93
2019-04-04T13:08:13.460Z,14.47
2019-04-04T13:10:43.728Z,13.30
2019-04-04T13:13:13.836Z,14.87
2019-04-04T13:15:43.936Z,13.13
2019-04-04T13:18:13.912Z,13.70
2019-04-04T13:20:44.220Z,12.80
2019-04-04T13:23:14.430Z,14.50
2019-04-04T13:25:44.693Z,12.87
2019-04-04T13:28:14.575Z,12.70
2019-04-04T13:30:45.533Z,12.67
2019-04-04T13:33:15.665Z,12.27
2019-04-04T13:35:45.757Z,13.03
2019-04-04T13:38:15.990Z,12.63
2019-04-04T13:40:46.172Z,12.57
2019-04-04T13:43:16.907Z,12.10
2019-04-04T13:45:47.040Z,12.70
2019-04-04T13:48:17.053Z,12.70
2019-04-04T13:50:47.787Z,12.33
2019-04-04T13:53:20.763Z,13.00
2019-04-04T13:55:50.922Z,12.17
2019-04-04T13:58:22.190Z,13.37
2019-04-04T14:00:53.555Z,12.97
2019-04-04T14:03:23.563Z,13.27
2019-04-04T14:05:54.227Z,11.53
2019-04-04T14:08:25.786Z,12.77
2019-04-04T14:10:58.346Z,13.40
2019-04-04T14:13:27.702Z,14.43
2019-04-04T14:15:59.679Z,12.73
2019-04-04T14:18:39.394Z,13.00
2019-04-04T14:21:03.804Z,14.27
2019-04-04T14:23:34.021Z,12.87
2019-04-04T14:26:04.691Z,13.20
2019-04-04T14:28:34.903Z,11.67
2019-04-04T14:31:04.942Z,10.67
2019-04-04T14:33:34.916Z,11.20
2019-04-04T14:36:05.204Z,10.03
2019-04-04T14:38:35.418Z,9.00
2019-04-04T14:41:11.194Z,7.97
2019-04-04T14:43:37.094Z,7.53
2019-04-04T14:46:07.234Z,8.17
2019-04-04T14:48:38.147Z,7.90
2019-04-04T14:51:08.108Z,7.83
2019-04-04T14:53:38.139Z,7.40
2019-04-04T14:56:08.582Z,7.27
2019-04-04T14:58:38.621Z,8.33
2019-04-04T15:01:09.064Z,6.97
2019-04-04T15:03:41.892Z,7.30
2019-04-04T15:06:10.754Z,7.50
2019-04-04T15:08:41.084Z,7.90
2019-04-04T15:11:23.096Z,7.87
2019-04-04T15:13:42.676Z,9.33
2019-04-04T15:16:14.092Z,8.10
2019-04-04T15:18:44.162Z,7.27
2019-04-04T15:21:15.331Z,7.73
2019-04-04T15:23:45.306Z,7.00
2019-04-04T15:26:15.340Z,8.17
2019-04-04T15:28:45.319Z,8.40
2019-04-04T15:31:15.272Z,7.57
2019-04-04T15:33:45.303Z,8.23
2019-04-04T15:36:15.278Z,7.73
2019-04-04T15:38:46.909Z,8.40
2019-04-04T15:41:16.958Z,7.93
2019-04-04T15:43:46.962Z,7.13
2019-04-04T15:46:16.936Z,8.00
2019-04-04T15:48:49.857Z,7.90
2019-04-04T15:51:19.825Z,7.77
2019-04-04T15:53:49.841Z,6.93
2019-04-04T15:56:20.306Z,6.60
2019-04-04T15:58:50.371Z,7.20
2019-04-04T16:01:20.490Z,7.40
2019-04-04T16:03:50.518Z,7.90
2019-04-04T16:06:20.435Z,7.73
2019-04-04T16:08:50.914Z,7.23
2019-04-04T16:11:21.598Z,6.93
2019-04-04T16:13:51.954Z,6.93
2019-04-04T16:16:22.517Z,7.93
2019-04-04T16:18:53.150Z,8.10
2019-04-04T16:21:23.437Z,8.10
2019-04-04T16:23:53.620Z,7.30
2019-04-04T16:26:24.000Z,8.07
2019-04-04T16:28:54.031Z,7.93
2019-04-04T16:31:24.428Z,7.07
2019-04-04T16:33:54.670Z,8.90
2019-04-04T16:36:24.611Z,8.37
2019-04-04T16:38:54.674Z,7.07
2019-04-04T16:41:25.046Z,7.60
2019-04-04T16:43:55.037Z,7.73
2019-04-04T16:46:25.171Z,8.13
2019-04-04T16:48:55.420Z,7.60
2019-04-04T16:51:25.586Z,8.00
2019-04-04T16:53:55.760Z,8.20
2019-04-04T16:56:25.884Z,7.90
2019-04-04T16:58:56.336Z,7.23
2019-04-04T17:01:27.180Z,7.17
2019-04-04T17:04:01.922Z,7.50
2019-04-04T17:06:28.824Z,8.00
2019-04-04T17:08:58.769Z,7.77
2019-04-04T17:11:29.422Z,7.67
2019-04-04T17:13:59.614Z,8.93
2019-04-04T17:16:29.714Z,8.00
2019-04-04T17:19:00.075Z,8.30
2019-04-04T17:21:30.206Z,8.47
2019-04-04T17:24:01.407Z,8.53
2019-04-04T17:26:31.821Z,8.20
2019-04-04T17:29:02.237Z,8.27
2019-04-04T17:31:33.023Z,9.27
2019-04-04T17:34:03.589Z,8.93
2019-04-04T17:36:34.042Z,8.93
2019-04-04T17:39:06.408Z,8.20
2019-04-04T17:41:37.075Z,8.97
2019-04-04T17:44:07.616Z,8.30
2019-04-04T17:46:37.997Z,8.30
2019-04-04T17:49:09.134Z,9.00
2019-04-04T17:51:39.313Z,8.47
2019-04-04T17:54:09.724Z,8.77
2019-04-04T17:56:40.184Z,7.97
2019-04-04T17:59:10.754Z,13.10
2019-04-04T18:01:41.019Z,11.30
2019-04-04T18:04:11.143Z,10.37
2019-04-04T18:06:41.213Z,9.57
2019-04-04T18:09:11.192Z,9.77
2019-04-04T18:11:42.962Z,9.73
2019-04-04T18:14:13.354Z,10.53
2019-04-04T18:16:43.407Z,10.50
2019-04-04T18:19:13.479Z,10.67
2019-04-04T18:21:43.481Z,11.23
2019-04-04T18:24:15.591Z,12.40
2019-04-04T18:26:45.960Z,11.73
2019-04-04T18:29:15.837Z,11.57
2019-04-04T18:31:48.240Z,12.40
2019-04-04T18:34:18.258Z,12.67
2019-04-04T18:36:48.530Z,13.73
2019-04-04T18:39:18.733Z,11.83
2019-04-04T18:41:49.620Z,16.37
2019-04-04T18:44:19.960Z,15.13
2019-04-04T18:46:52.617Z,13.90
2019-04-04T18:49:22.641Z,14.00
2019-04-04T18:51:52.756Z,12.30
2019-04-04T18:54:22.616Z,13.43
2019-04-04T18:56:52.609Z,13.90
2019-04-04T18:59:22.493Z,14.83
2019-04-04T19:01:52.403Z,12.97
2019-04-04T19:04:22.815Z,16.27
2019-04-04T19:06:53.079Z,14.97
2019-04-04T19:09:23.240Z,14.83
2019-04-04T19:11:53.561Z,14.20
2019-04-04T19:14:23.569Z,13.60
2019-04-04T19:16:53.536Z,13.23
2019-04-04T19:19:24.136Z,13.10
2019-04-04T19:21:54.525Z,14.00
2019-04-04T19:24:24.790Z,14.80
2019-04-04T19:26:55.024Z,13.60
2019-04-04T19:29:25.386Z,12.83
2019-04-04T19:31:55.593Z,13.17
2019-04-04T19:34:25.816Z,14.13
2019-04-04T19:36:56.347Z,16.03
2019-04-04T19:39:26.660Z,15.57
2019-04-04T19:41:56.697Z,14.40
2019-04-04T19:44:26.765Z,13.93
2019-04-04T19:46:56.807Z,15.00
2019-04-04T19:49:27.069Z,14.33
2019-04-04T19:51:57.430Z,14.07
2019-04-04T19:54:27.612Z,16.47
2019-04-04T19:56:57.724Z,16.07
2019-04-04T19:59:30.055Z,15.50
2019-04-04T20:02:00.670Z,15.30
2019-04-04T20:04:30.760Z,15.33
2019-04-04T20:07:03.531Z,14.23
2019-04-04T20:09:32.610Z,16.83
2019-04-04T20:12:04.505Z,17.13
2019-04-04T20:14:34.739Z,14.73
2019-04-04T20:17:04.899Z,16.57
2019-04-04T20:19:35.172Z,16.93
2019-04-04T20:22:05.408Z,14.17
2019-04-04T20:24:35.371Z,16.07
2019-04-04T20:27:05.823Z,15.57
2019-04-04T20:29:35.890Z,17.00
2019-04-04T20:32:06.056Z,14.90
2019-04-04T20:34:36.184Z,16.57
2019-04-04T20:37:06.193Z,16.37
2019-04-04T20:39:36.688Z,16.40
2019-04-04T20:42:06.674Z,15.87
2019-04-04T20:44:36.773Z,17.00
2019-04-04T20:47:07.043Z,16.13
2019-04-04T20:49:37.506Z,15.97
2019-04-04T20:52:07.454Z,17.63
2019-04-04T20:54:37.955Z,17.97
2019-04-04T20:57:08.413Z,16.87
2019-04-04T20:59:38.311Z,15.60
2019-04-04T21:02:08.692Z,17.03
2019-04-04T21:04:39.111Z,15.37
2019-04-04T21:07:09.106Z,14.43
2019-04-04T21:09:39.590Z,14.43
2019-04-04T21:12:11.361Z,13.77
2019-04-04T21:14:41.957Z,13.97
2019-04-04T21:17:13.579Z,14.60
2019-04-04T21:19:43.458Z,13.23
2019-04-04T21:22:26.581Z,14.07
2019-04-04T21:24:45.061Z,12.03
2019-04-04T21:27:15.001Z,14.23
2019-04-04T21:29:44.992Z,14.80
2019-04-04T21:32:14.933Z,14.40
2019-04-04T21:34:44.801Z,14.17
2019-04-04T21:37:14.939Z,14.57
2019-04-04T21:39:44.878Z,14.63
2019-04-04T21:42:15.150Z,14.43
2019-04-04T21:44:45.173Z,14.50
2019-04-04T21:47:15.795Z,14.70
2019-04-04T21:49:45.768Z,14.47
2019-04-04T21:52:15.987Z,15.60
2019-04-04T21:54:46.191Z,16.37
2019-04-04T21:57:16.321Z,15.57
2019-04-04T21:59:49.468Z,16.00
2019-04-04T22:02:19.602Z,14.77
2019-04-04T22:04:49.772Z,16.03
2019-04-04T22:07:20.997Z,17.23
2019-04-04T22:09:51.953Z,14.97
2019-04-04T22:12:22.638Z,17.87
2019-04-04T22:14:52.901Z,17.63
2019-04-04T22:17:22.991Z,17.73
2019-04-04T22:19:52.881Z,17.63
2019-04-04T22:22:22.939Z,15.87
2019-04-04T22:24:53.620Z,14.93
2019-04-04T22:27:23.595Z,17.57
2019-04-04T22:29:53.595Z,15.87
2019-04-04T22:32:23.606Z,15.97
2019-04-04T22:34:53.588Z,15.07
2019-04-04T22:37:23.767Z,16.57
2019-04-04T22:39:53.715Z,15.80
2019-04-04T22:42:23.680Z,15.23
2019-04-04T22:44:53.891Z,15.07
2019-04-04T22:47:24.235Z,14.67
2019-04-04T22:49:54.698Z,16.93
2019-04-04T22:52:25.425Z,15.30
2019-04-04T22:54:55.729Z,14.87
2019-04-04T22:57:25.746Z,13.53
2019-04-04T22:59:56.009Z,13.33
2019-04-04T23:02:26.095Z,15.67
2019-04-04T23:04:56.067Z,13.50
2019-04-04T23:07:26.005Z,13.43
2019-04-04T23:09:56.321Z,13.50
2019-04-04T23:12:26.366Z,13.50
2019-04-04T23:14:56.666Z,15.40
2019-04-04T23:17:26.673Z,14.60
2019-04-04T23:19:56.908Z,15.33
2019-04-04T23:22:26.751Z,14.90
2019-04-04T23:24:56.674Z,15.87
2019-04-04T23:27:26.589Z,15.97
2019-04-04T23:29:56.444Z,14.13
2019-04-04T23:32:26.684Z,13.73
2019-04-04T23:34:56.586Z,16.20
2019-04-04T23:37:26.509Z,15.70
2019-04-04T23:39:56.398Z,15.30
2019-04-04T23:42:26.434Z,13.33
2019-04-04T23:45:01.206Z,15.23
2019-04-04T23:47:28.193Z,15.97
2019-04-04T23:49:58.334Z,14.43
2019-04-04T23:52:28.336Z,13.43
2019-04-04T23:54:59.869Z,14.90
2019-04-04T23:57:29.858Z,14.00
2019-04-04T23:59:59.763Z,15.53
